sensor_id;sensor_type;location;lat;lon;timestamp;pressure;altitude;pressure_sealevel;temperature;humidity
32486;BME280;18935;52.236;21.134;2022-08-21T00:02:23;99192.59;;;16.43;84.52
32486;BME280;18935;52.236;21.134;2022-08-21T00:04:49;99197.22;;;16.39;84.72
32486;BME280;18935;52.236;21.134;2022-08-21T00:07:16;99189.13;;;16.43;84.65
32486;BME280;18935;52.236;21.134;2022-08-21T00:09:41;99193.16;;;16.35;85.06
32486;BME280;18935;52.236;21.134;2022-08-21T00:12:07;99188.94;;;16.33;85.32
32486;BME280;18935;52.236;21.134;2022-08-21T00:14:33;99187.06;;;16.35;85.16
32486;BME280;18935;52.236;21.134;2022-08-21T00:17:00;99184.97;;;16.27;85.29
32486;BME280;18935;52.236;21.134;2022-08-21T00:19:25;99177.50;;;16.21;85.54
32486;BME280;18935;52.236;21.134;2022-08-21T00:21:52;99178.25;;;16.23;85.67
32486;BME280;18935;52.236;21.134;2022-08-21T00:24:19;99176.78;;;16.19;86.00
32486;BME280;18935;52.236;21.134;2022-08-21T00:26:45;99168.63;;;16.11;86.48
32486;BME280;18935;52.236;21.134;2022-08-21T00:29:11;99165.47;;;16.06;87.05
32486;BME280;18935;52.236;21.134;2022-08-21T00:31:37;99161.28;;;16.03;87.27
32486;BME280;18935;52.236;21.134;2022-08-21T00:34:03;99151.31;;;15.96;87.85
32486;BME280;18935;52.236;21.134;2022-08-21T00:36:28;99156.03;;;15.91;88.50
32486;BME280;18935;52.236;21.134;2022-08-21T00:38:54;99163.63;;;15.95;88.23
32486;BME280;18935;52.236;21.134;2022-08-21T00:41:19;99156.44;;;15.97;88.03
32486;BME280;18935;52.236;21.134;2022-08-21T00:43:45;99152.88;;;15.85;88.68
32486;BME280;18935;52.236;21.134;2022-08-21T00:46:10;99148.59;;;15.84;88.83
32486;BME280;18935;52.236;21.134;2022-08-21T00:48:35;99149.31;;;15.87;88.59
32486;BME280;18935;52.236;21.134;2022-08-21T00:53:32;99140.19;;;15.79;89.06
32486;BME280;18935;52.236;21.134;2022-08-21T00:56:01;99141.78;;;15.82;89.12
32486;BME280;18935;52.236;21.134;2022-08-21T00:58:29;99144.41;;;15.69;90.23
32486;BME280;18935;52.236;21.134;2022-08-21T01:00:55;99145.16;;;15.58;90.51
32486;BME280;18935;52.236;21.134;2022-08-21T01:03:23;99142.63;;;15.57;91.49
32486;BME280;18935;52.236;21.134;2022-08-21T01:05:49;99154.09;;;15.43;92.59
32486;BME280;18935;52.236;21.134;2022-08-21T01:08:17;99149.56;;;15.45;92.85
32486;BME280;18935;52.236;21.134;2022-08-21T01:10:43;99151.47;;;15.43;93.12
32486;BME280;18935;52.236;21.134;2022-08-21T01:13:10;99151.59;;;15.42;93.46
32486;BME280;18935;52.236;21.134;2022-08-21T01:15:40;99147.06;;;15.31;94.45
32486;BME280;18935;52.236;21.134;2022-08-21T01:18:08;99151.28;;;15.34;94.15
32486;BME280;18935;52.236;21.134;2022-08-21T01:20:36;99144.97;;;15.36;93.20
32486;BME280;18935;52.236;21.134;2022-08-21T01:23:04;99139.47;;;15.39;93.22
32486;BME280;18935;52.236;21.134;2022-08-21T01:25:30;99141.38;;;15.37;94.09
32486;BME280;18935;52.236;21.134;2022-08-21T01:27:57;99135.59;;;15.32;94.72
32486;BME280;18935;52.236;21.134;2022-08-21T01:30:27;99139.19;;;15.31;94.26
32486;BME280;18935;52.236;21.134;2022-08-21T01:32:54;99135.50;;;15.34;93.97
32486;BME280;18935;52.236;21.134;2022-08-21T01:35:20;99142.63;;;15.32;94.15
32486;BME280;18935;52.236;21.134;2022-08-21T01:37:47;99130.44;;;15.30;94.25
32486;BME280;18935;52.236;21.134;2022-08-21T01:40:14;99127.75;;;15.19;95.40
32486;BME280;18935;52.236;21.134;2022-08-21T01:42:41;99127.63;;;15.08;96.09
32486;BME280;18935;52.236;21.134;2022-08-21T01:45:08;99125.41;;;15.02;96.55
32486;BME280;18935;52.236;21.134;2022-08-21T01:47:34;99120.91;;;15.04;96.31
32486;BME280;18935;52.236;21.134;2022-08-21T01:50:00;99115.22;;;15.10;96.06
32486;BME280;18935;52.236;21.134;2022-08-21T01:52:26;99108.31;;;14.96;96.94
32486;BME280;18935;52.236;21.134;2022-08-21T01:54:51;99109.56;;;14.91;97.68
32486;BME280;18935;52.236;21.134;2022-08-21T01:57:17;99118.50;;;14.88;97.90
32486;BME280;18935;52.236;21.134;2022-08-21T01:59:43;99111.66;;;14.86;98.41
32486;BME280;18935;52.236;21.134;2022-08-21T02:02:08;99114.50;;;14.83;98.66
32486;BME280;18935;52.236;21.134;2022-08-21T02:04:34;99115.94;;;14.87;98.49
32486;BME280;18935;52.236;21.134;2022-08-21T02:07:00;99107.03;;;14.89;97.92
32486;BME280;18935;52.236;21.134;2022-08-21T02:09:26;99112.41;;;14.88;97.59
32486;BME280;18935;52.236;21.134;2022-08-21T02:11:51;99108.69;;;14.78;98.80
32486;BME280;18935;52.236;21.134;2022-08-21T02:14:17;99103.13;;;14.69;99.43
32486;BME280;18935;52.236;21.134;2022-08-21T02:16:44;99111.13;;;14.81;98.44
32486;BME280;18935;52.236;21.134;2022-08-21T02:19:12;99104.81;;;14.70;98.85
32486;BME280;18935;52.236;21.134;2022-08-21T02:21:38;99103.75;;;14.60;100.00
32486;BME280;18935;52.236;21.134;2022-08-21T02:24:04;99103.53;;;14.51;100.00
32486;BME280;18935;52.236;21.134;2022-08-21T02:26:29;99100.91;;;14.51;100.00
32486;BME280;18935;52.236;21.134;2022-08-21T02:28:55;99102.88;;;14.47;100.00
32486;BME280;18935;52.236;21.134;2022-08-21T02:31:20;99099.47;;;14.45;100.00
32486;BME280;18935;52.236;21.134;2022-08-21T02:33:45;99098.09;;;14.39;100.00
32486;BME280;18935;52.236;21.134;2022-08-21T02:36:11;99090.22;;;14.39;100.00
32486;BME280;18935;52.236;21.134;2022-08-21T02:38:39;99104.50;;;14.35;100.00
32486;BME280;18935;52.236;21.134;2022-08-21T02:41:07;99088.13;;;14.32;100.00
32486;BME280;18935;52.236;21.134;2022-08-21T02:43:33;99085.81;;;14.40;100.00
32486;BME280;18935;52.236;21.134;2022-08-21T02:45:59;99087.09;;;14.34;100.00
32486;BME280;18935;52.236;21.134;2022-08-21T02:48:27;99084.66;;;14.31;100.00
32486;BME280;18935;52.236;21.134;2022-08-21T02:51:00;99083.69;;;14.32;100.00
32486;BME280;18935;52.236;21.134;2022-08-21T02:53:27;99079.22;;;14.34;100.00
32486;BME280;18935;52.236;21.134;2022-08-21T02:55:53;99073.22;;;14.32;100.00
32486;BME280;18935;52.236;21.134;2022-08-21T02:58:23;99076.88;;;14.30;100.00
32486;BME280;18935;52.236;21.134;2022-08-21T03:00:49;99079.72;;;14.27;100.00
32486;BME280;18935;52.236;21.134;2022-08-21T03:03:15;99081.78;;;14.22;100.00
32486;BME280;18935;52.236;21.134;2022-08-21T03:05:41;99076.44;;;14.23;100.00
32486;BME280;18935;52.236;21.134;2022-08-21T03:08:08;99076.16;;;14.28;100.00
32486;BME280;18935;52.236;21.134;2022-08-21T03:10:36;99075.81;;;14.19;100.00
32486;BME280;18935;52.236;21.134;2022-08-21T03:13:02;99083.25;;;14.13;100.00
32486;BME280;18935;52.236;21.134;2022-08-21T03:15:28;99077.56;;;14.06;100.00
32486;BME280;18935;52.236;21.134;2022-08-21T03:17:54;99075.28;;;14.14;100.00
32486;BME280;18935;52.236;21.134;2022-08-21T03:20:22;99075.03;;;14.05;100.00
32486;BME280;18935;52.236;21.134;2022-08-21T03:22:49;99081.41;;;14.01;100.00
32486;BME280;18935;52.236;21.134;2022-08-21T03:25:14;99077.09;;;14.00;100.00
32486;BME280;18935;52.236;21.134;2022-08-21T03:27:39;99079.84;;;13.98;100.00
32486;BME280;18935;52.236;21.134;2022-08-21T03:30:06;99078.34;;;13.94;100.00
32486;BME280;18935;52.236;21.134;2022-08-21T03:32:32;99074.03;;;13.93;100.00
32486;BME280;18935;52.236;21.134;2022-08-21T03:34:57;99079.84;;;13.98;100.00
32486;BME280;18935;52.236;21.134;2022-08-21T03:37:24;99077.84;;;14.02;100.00
32486;BME280;18935;52.236;21.134;2022-08-21T03:39:49;99072.69;;;14.00;100.00
32486;BME280;18935;52.236;21.134;2022-08-21T03:42:15;99072.25;;;13.94;100.00
32486;BME280;18935;52.236;21.134;2022-08-21T03:44:40;99067.66;;;13.97;100.00
32486;BME280;18935;52.236;21.134;2022-08-21T03:47:05;99069.34;;;13.98;100.00
32486;BME280;18935;52.236;21.134;2022-08-21T03:49:31;99071.91;;;14.12;100.00
32486;BME280;18935;52.236;21.134;2022-08-21T03:51:56;99073.16;;;14.07;100.00
32486;BME280;18935;52.236;21.134;2022-08-21T03:54:21;99078.50;;;14.05;100.00
32486;BME280;18935;52.236;21.134;2022-08-21T03:56:47;99074.19;;;14.04;100.00
32486;BME280;18935;52.236;21.134;2022-08-21T03:59:12;99077.28;;;14.11;100.00
32486;BME280;18935;52.236;21.134;2022-08-21T04:01:38;99071.38;;;14.07;100.00
32486;BME280;18935;52.236;21.134;2022-08-21T04:04:05;99075.81;;;13.93;100.00
32486;BME280;18935;52.236;21.134;2022-08-21T04:06:30;99077.75;;;14.03;100.00
32486;BME280;18935;52.236;21.134;2022-08-21T04:08:56;99080.56;;;14.00;100.00
32486;BME280;18935;52.236;21.134;2022-08-21T04:11:21;99077.84;;;14.02;100.00
32486;BME280;18935;52.236;21.134;2022-08-21T04:13:47;99074.19;;;14.04;100.00
32486;BME280;18935;52.236;21.134;2022-08-21T04:16:13;99073.66;;;13.99;100.00
32486;BME280;18935;52.236;21.134;2022-08-21T04:18:39;99077.00;;;14.01;100.00
32486;BME280;18935;52.236;21.134;2022-08-21T04:21:05;99079.34;;;14.06;100.00
32486;BME280;18935;52.236;21.134;2022-08-21T04:23:32;99083.34;;;14.11;100.00
32486;BME280;18935;52.236;21.134;2022-08-21T04:25:57;99080.50;;;14.14;100.00
32486;BME280;18935;52.236;21.134;2022-08-21T04:28:25;99087.53;;;14.14;100.00
32486;BME280;18935;52.236;21.134;2022-08-21T04:30:52;99087.88;;;14.22;100.00
32486;BME280;18935;52.236;21.134;2022-08-21T04:33:17;99092.06;;;14.25;100.00
32486;BME280;18935;52.236;21.134;2022-08-21T04:35:43;99084.34;;;14.36;100.00
32486;BME280;18935;52.236;21.134;2022-08-21T04:38:08;99078.16;;;14.37;100.00
32486;BME280;18935;52.236;21.134;2022-08-21T04:40:33;99079.75;;;14.39;100.00
32486;BME280;18935;52.236;21.134;2022-08-21T04:43:03;99077.91;;;14.54;100.00
32486;BME280;18935;52.236;21.134;2022-08-21T04:45:33;99077.94;;;14.67;99.62
32486;BME280;18935;52.236;21.134;2022-08-21T04:48:02;99075.75;;;14.73;99.24
32486;BME280;18935;52.236;21.134;2022-08-21T04:50:31;99070.41;;;14.88;98.10
32486;BME280;18935;52.236;21.134;2022-08-21T04:53:00;99072.69;;;14.92;98.04
32486;BME280;18935;52.236;21.134;2022-08-21T04:55:26;99067.84;;;14.99;97.12
32486;BME280;18935;52.236;21.134;2022-08-21T04:57:53;99066.19;;;15.11;96.66
32486;BME280;18935;52.236;21.134;2022-08-21T05:00:20;99070.91;;;15.18;96.77
32486;BME280;18935;52.236;21.134;2022-08-21T05:02:46;99070.38;;;15.26;96.48
32486;BME280;18935;52.236;21.134;2022-08-21T05:05:12;99078.13;;;15.27;96.38
32486;BME280;18935;52.236;21.134;2022-08-21T05:07:38;99069.38;;;15.40;95.01
32486;BME280;18935;52.236;21.134;2022-08-21T05:10:05;99079.16;;;15.38;94.55
32486;BME280;18935;52.236;21.134;2022-08-21T05:12:32;99075.38;;;15.42;93.95
32486;BME280;18935;52.236;21.134;2022-08-21T05:14:58;99077.84;;;15.56;93.46
32486;BME280;18935;52.236;21.134;2022-08-21T05:17:25;99077.75;;;15.70;92.86
32486;BME280;18935;52.236;21.134;2022-08-21T05:19:50;99079.25;;;15.85;92.39
32486;BME280;18935;52.236;21.134;2022-08-21T05:22:20;99077.84;;;16.05;90.33
32486;BME280;18935;52.236;21.134;2022-08-21T05:24:45;99078.75;;;16.63;87.70
32486;BME280;18935;52.236;21.134;2022-08-21T05:27:10;99081.00;;;17.48;82.22
32486;BME280;18935;52.236;21.134;2022-08-21T05:29:35;99078.84;;;18.19;78.03
32486;BME280;18935;52.236;21.134;2022-08-21T05:32:08;99079.56;;;18.74;76.00
32486;BME280;18935;52.236;21.134;2022-08-21T05:34:34;99087.03;;;19.10;72.57
32486;BME280;18935;52.236;21.134;2022-08-21T05:36:59;99086.66;;;19.55;70.58
32486;BME280;18935;52.236;21.134;2022-08-21T05:39:24;99085.41;;;20.28;67.22
32486;BME280;18935;52.236;21.134;2022-08-21T05:41:49;99091.72;;;20.57;66.02
32486;BME280;18935;52.236;21.134;2022-08-21T05:44:15;99095.06;;;21.15;62.60
32486;BME280;18935;52.236;21.134;2022-08-21T05:46:40;99092.25;;;21.26;62.38
32486;BME280;18935;52.236;21.134;2022-08-21T05:49:05;99097.13;;;21.41;61.28
32486;BME280;18935;52.236;21.134;2022-08-21T05:51:31;99094.47;;;20.45;64.92
32486;BME280;18935;52.236;21.134;2022-08-21T05:53:56;99094.91;;;20.50;65.27
32486;BME280;18935;52.236;21.134;2022-08-21T05:56:21;99089.75;;;20.59;64.91
32486;BME280;18935;52.236;21.134;2022-08-21T05:58:47;99080.41;;;20.54;64.40
32486;BME280;18935;52.236;21.134;2022-08-21T06:01:12;99091.38;;;20.89;63.45
32486;BME280;18935;52.236;21.134;2022-08-21T06:03:39;99082.44;;;20.90;63.03
32486;BME280;18935;52.236;21.134;2022-08-21T06:06:06;99089.81;;;20.96;63.23
32486;BME280;18935;52.236;21.134;2022-08-21T06:08:32;99100.13;;;21.46;61.35
32486;BME280;18935;52.236;21.134;2022-08-21T06:10:59;99103.09;;;21.43;60.75
32486;BME280;18935;52.236;21.134;2022-08-21T06:13:25;99105.91;;;21.31;61.67
32486;BME280;18935;52.236;21.134;2022-08-21T06:16:02;99094.22;;;21.15;62.15
32486;BME280;18935;52.236;21.134;2022-08-21T06:18:28;99101.75;;;21.19;62.55
32486;BME280;18935;52.236;21.134;2022-08-21T06:20:53;99100.25;;;21.07;62.38
32486;BME280;18935;52.236;21.134;2022-08-21T06:23:18;99102.75;;;21.18;62.04
32486;BME280;18935;52.236;21.134;2022-08-21T06:25:44;99098.44;;;21.07;62.51
32486;BME280;18935;52.236;21.134;2022-08-21T06:28:10;99103.81;;;20.40;66.23
32486;BME280;18935;52.236;21.134;2022-08-21T06:30:36;99101.75;;;21.19;63.69
32486;BME280;18935;52.236;21.134;2022-08-21T06:33:02;99103.88;;;21.06;64.55
32486;BME280;18935;52.236;21.134;2022-08-21T06:35:28;99102.34;;;21.13;63.78
32486;BME280;18935;52.236;21.134;2022-08-21T06:37:55;99109.13;;;21.72;62.43
32486;BME280;18935;52.236;21.134;2022-08-21T06:40:20;99110.47;;;21.76;61.87
32486;BME280;18935;52.236;21.134;2022-08-21T06:42:46;99116.41;;;22.15;59.52
32486;BME280;18935;52.236;21.134;2022-08-21T06:45:11;99114.53;;;22.26;59.71
32486;BME280;18935;52.236;21.134;2022-08-21T06:47:36;99106.41;;;22.09;59.60
32486;BME280;18935;52.236;21.134;2022-08-21T06:50:02;99103.84;;;21.90;60.75
32486;BME280;18935;52.236;21.134;2022-08-21T06:52:28;99110.50;;;22.57;58.20
32486;BME280;18935;52.236;21.134;2022-08-21T06:54:54;99107.28;;;22.54;58.35
32486;BME280;18935;52.236;21.134;2022-08-21T06:57:19;99109.38;;;22.24;59.07
32486;BME280;18935;52.236;21.134;2022-08-21T06:59:46;99104.50;;;22.19;58.82
32486;BME280;18935;52.236;21.134;2022-08-21T07:02:11;99106.00;;;22.22;59.24
32486;BME280;18935;52.236;21.134;2022-08-21T07:04:36;99103.84;;;22.17;58.68
32486;BME280;18935;52.236;21.134;2022-08-21T07:07:01;99101.91;;;22.45;57.79
32486;BME280;18935;52.236;21.134;2022-08-21T07:09:27;99107.47;;;22.34;58.46
32486;BME280;18935;52.236;21.134;2022-08-21T07:11:54;99113.81;;;22.24;59.12
32486;BME280;18935;52.236;21.134;2022-08-21T07:14:20;99118.41;;;22.49;58.34
32486;BME280;18935;52.236;21.134;2022-08-21T07:16:46;99114.69;;;22.42;58.05
32486;BME280;18935;52.236;21.134;2022-08-21T07:19:12;99108.47;;;22.33;59.21
32486;BME280;18935;52.236;21.134;2022-08-21T07:21:37;99110.63;;;22.73;57.67
32486;BME280;18935;52.236;21.134;2022-08-21T07:24:02;99123.03;;;22.29;58.70
32486;BME280;18935;52.236;21.134;2022-08-21T07:26:28;99116.94;;;22.72;58.42
32486;BME280;18935;52.236;21.134;2022-08-21T07:28:53;99113.44;;;22.90;58.20
32486;BME280;18935;52.236;21.134;2022-08-21T07:31:24;99113.50;;;23.24;57.29
32486;BME280;18935;52.236;21.134;2022-08-21T07:33:49;99108.28;;;23.74;55.31
32486;BME280;18935;52.236;21.134;2022-08-21T07:36:15;99107.31;;;23.92;54.37
32486;BME280;18935;52.236;21.134;2022-08-21T07:38:40;99107.94;;;23.43;54.47
32486;BME280;18935;52.236;21.134;2022-08-21T07:41:12;99104.34;;;23.95;54.03
32486;BME280;18935;52.236;21.134;2022-08-21T07:43:39;99104.97;;;24.47;53.45
32486;BME280;18935;52.236;21.134;2022-08-21T07:46:04;99109.78;;;24.92;51.92
32486;BME280;18935;52.236;21.134;2022-08-21T07:48:29;99109.66;;;24.78;51.07
32486;BME280;18935;52.236;21.134;2022-08-21T07:50:55;99116.28;;;24.74;51.11
32486;BME280;18935;52.236;21.134;2022-08-21T07:53:20;99103.63;;;24.67;50.94
32486;BME280;18935;52.236;21.134;2022-08-21T07:55:46;99097.63;;;24.74;51.19
32486;BME280;18935;52.236;21.134;2022-08-21T07:58:11;99087.63;;;24.76;50.20
32486;BME280;18935;52.236;21.134;2022-08-21T08:00:37;99092.28;;;24.90;51.17
32486;BME280;18935;52.236;21.134;2022-08-21T08:03:03;99095.13;;;25.05;51.38
32486;BME280;18935;52.236;21.134;2022-08-21T08:05:30;99088.25;;;25.02;49.85
32486;BME280;18935;52.236;21.134;2022-08-21T08:07:56;99088.97;;;24.80;50.09
32486;BME280;18935;52.236;21.134;2022-08-21T08:10:22;99089.59;;;24.98;49.70
32486;BME280;18935;52.236;21.134;2022-08-21T08:12:48;99087.63;;;24.67;51.36
32486;BME280;18935;52.236;21.134;2022-08-21T08:15:19;99084.63;;;24.79;50.94
32486;BME280;18935;52.236;21.134;2022-08-21T08:17:44;99078.25;;;25.12;50.03
32486;BME280;18935;52.236;21.134;2022-08-21T08:20:12;99077.78;;;25.01;50.13
32486;BME280;18935;52.236;21.134;2022-08-21T08:22:38;99085.84;;;25.48;48.98
32486;BME280;18935;52.236;21.134;2022-08-21T08:25:05;99085.41;;;25.67;47.97
32486;BME280;18935;52.236;21.134;2022-08-21T08:27:31;99087.00;;;25.54;48.81
32486;BME280;18935;52.236;21.134;2022-08-21T08:29:57;99077.56;;;25.27;50.11
32486;BME280;18935;52.236;21.134;2022-08-21T08:32:22;99079.75;;;25.23;48.65
32486;BME280;18935;52.236;21.134;2022-08-21T08:34:48;99077.44;;;25.04;49.56
32486;BME280;18935;52.236;21.134;2022-08-21T08:37:16;99075.13;;;25.09;49.03
32486;BME280;18935;52.236;21.134;2022-08-21T08:39:42;99077.72;;;25.33;48.59
32486;BME280;18935;52.236;21.134;2022-08-21T08:42:08;99074.84;;;25.35;48.43
32486;BME280;18935;52.236;21.134;2022-08-21T08:44:36;99081.94;;;25.59;47.29
32486;BME280;18935;52.236;21.134;2022-08-21T08:47:03;99083.53;;;25.37;47.46
32486;BME280;18935;52.236;21.134;2022-08-21T08:52:01;99076.00;;;25.88;45.34
32486;BME280;18935;52.236;21.134;2022-08-21T08:54:34;99073.59;;;26.01;44.06
32486;BME280;18935;52.236;21.134;2022-08-21T08:57:08;99067.81;;;26.12;45.83
32486;BME280;18935;52.236;21.134;2022-08-21T08:59:40;99073.31;;;26.42;43.67
32486;BME280;18935;52.236;21.134;2022-08-21T09:02:09;99077.81;;;26.64;43.16
32486;BME280;18935;52.236;21.134;2022-08-21T09:04:36;99069.38;;;26.52;42.69
32486;BME280;18935;52.236;21.134;2022-08-21T09:07:20;99074.34;;;26.41;44.23
32486;BME280;18935;52.236;21.134;2022-08-21T09:10:12;99073.41;;;26.25;43.88
32486;BME280;18935;52.236;21.134;2022-08-21T09:15:14;99074.28;;;25.56;45.58
32486;BME280;18935;52.236;21.134;2022-08-21T09:23:21;99067.47;;;26.38;42.36
32486;BME280;18935;52.236;21.134;2022-08-21T09:28:36;99070.53;;;26.04;42.38
32486;BME280;18935;52.236;21.134;2022-08-21T09:31:14;99062.34;;;26.28;42.57
32486;BME280;18935;52.236;21.134;2022-08-21T09:33:41;99064.84;;;26.30;43.18
32486;BME280;18935;52.236;21.134;2022-08-21T09:36:07;99061.59;;;26.80;42.06
32486;BME280;18935;52.236;21.134;2022-08-21T09:38:35;99061.03;;;27.08;41.45
32486;BME280;18935;52.236;21.134;2022-08-21T09:41:03;99054.53;;;27.02;42.32
32486;BME280;18935;52.236;21.134;2022-08-21T09:43:29;99058.38;;;26.70;42.36
32486;BME280;18935;52.236;21.134;2022-08-21T09:46:21;99059.63;;;26.59;43.33
32486;BME280;18935;52.236;21.134;2022-08-21T09:48:53;99056.66;;;26.54;42.01
32486;BME280;18935;52.236;21.134;2022-08-21T09:51:28;99050.28;;;24.76;46.43
32486;BME280;18935;52.236;21.134;2022-08-21T09:53:56;99056.66;;;24.50;47.63
32486;BME280;18935;52.236;21.134;2022-08-21T09:59:28;99051.06;;;23.87;49.14
32486;BME280;18935;52.236;21.134;2022-08-21T10:01:56;99044.38;;;23.82;48.92
32486;BME280;18935;52.236;21.134;2022-08-21T10:04:34;99036.09;;;23.43;50.90
32486;BME280;18935;52.236;21.134;2022-08-21T10:07:11;99043.19;;;23.26;52.06
32486;BME280;18935;52.236;21.134;2022-08-21T10:09:38;99041.22;;;23.02;53.47
32486;BME280;18935;52.236;21.134;2022-08-21T10:14:40;99037.59;;;22.60;52.28
32486;BME280;18935;52.236;21.134;2022-08-21T10:17:17;99046.63;;;22.67;52.82
32486;BME280;18935;52.236;21.134;2022-08-21T10:20:20;99039.56;;;22.58;53.13
32486;BME280;18935;52.236;21.134;2022-08-21T10:22:58;99028.13;;;22.57;53.51
32486;BME280;18935;52.236;21.134;2022-08-21T10:25:34;99034.94;;;22.60;51.96
32486;BME280;18935;52.236;21.134;2022-08-21T10:28:47;99035.91;;;22.33;53.24
32486;BME280;18935;52.236;21.134;2022-08-21T10:31:24;99043.84;;;21.97;54.81
32486;BME280;18935;52.236;21.134;2022-08-21T10:36:43;99037.19;;;21.93;54.24
32486;BME280;18935;52.236;21.134;2022-08-21T10:39:28;99043.38;;;21.84;54.97
32486;BME280;18935;52.236;21.134;2022-08-21T10:47:45;99034.63;;;21.56;56.39
32486;BME280;18935;52.236;21.134;2022-08-21T10:53:44;99042.50;;;21.48;57.17
32486;BME280;18935;52.236;21.134;2022-08-21T10:56:19;99038.25;;;21.55;56.75
32486;BME280;18935;52.236;21.134;2022-08-21T11:01:47;99032.47;;;21.42;56.18
32486;BME280;18935;52.236;21.134;2022-08-21T11:04:29;99041.34;;;21.50;56.53
32486;BME280;18935;52.236;21.134;2022-08-21T11:07:42;99037.06;;;21.67;55.12
32486;BME280;18935;52.236;21.134;2022-08-21T11:13:40;99029.84;;;21.77;55.19
32486;BME280;18935;52.236;21.134;2022-08-21T11:16:26;99036.03;;;21.78;55.31
32486;BME280;18935;52.236;21.134;2022-08-21T11:18:58;99031.63;;;21.86;55.23
32486;BME280;18935;52.236;21.134;2022-08-21T11:21:49;99027.75;;;21.99;53.29
32486;BME280;18935;52.236;21.134;2022-08-21T11:27:01;99014.97;;;23.08;50.80
32486;BME280;18935;52.236;21.134;2022-08-21T11:29:35;99018.56;;;23.67;51.08
32486;BME280;18935;52.236;21.134;2022-08-21T11:35:00;99016.00;;;24.40;47.61
32486;BME280;18935;52.236;21.134;2022-08-21T11:45:45;99021.13;;;25.38;45.14
32486;BME280;18935;52.236;21.134;2022-08-21T11:48:29;99022.81;;;25.39;46.14
32486;BME280;18935;52.236;21.134;2022-08-21T11:51:00;99021.81;;;24.60;47.55
32486;BME280;18935;52.236;21.134;2022-08-21T11:53:46;99024.59;;;24.91;46.58
32486;BME280;18935;52.236;21.134;2022-08-21T11:56:37;99025.31;;;24.77;47.64
32486;BME280;18935;52.236;21.134;2022-08-21T11:59:21;99025.31;;;24.52;46.65
32486;BME280;18935;52.236;21.134;2022-08-21T12:01:48;99016.31;;;24.45;46.88
32486;BME280;18935;52.236;21.134;2022-08-21T12:04:26;99029.22;;;25.13;45.01
32486;BME280;18935;52.236;21.134;2022-08-21T12:06:53;99024.03;;;25.20;45.39
32486;BME280;18935;52.236;21.134;2022-08-21T12:11:59;99008.66;;;24.09;47.50
32486;BME280;18935;52.236;21.134;2022-08-21T12:14:36;99012.25;;;23.76;49.33
32486;BME280;18935;52.236;21.134;2022-08-21T12:17:07;99014.53;;;23.54;49.61
32486;BME280;18935;52.236;21.134;2022-08-21T12:19:33;99009.88;;;23.22;50.23
32486;BME280;18935;52.236;21.134;2022-08-21T12:26:55;99012.00;;;23.11;50.95
32486;BME280;18935;52.236;21.134;2022-08-21T12:31:53;99012.50;;;23.14;50.89
32486;BME280;18935;52.236;21.134;2022-08-21T12:34:20;99010.41;;;23.26;49.65
32486;BME280;18935;52.236;21.134;2022-08-21T12:36:53;99014.81;;;23.43;47.97
32486;BME280;18935;52.236;21.134;2022-08-21T12:39:26;99007.34;;;23.47;52.08
32486;BME280;18935;52.236;21.134;2022-08-21T12:42:11;99001.69;;;23.50;49.67
32486;BME280;18935;52.236;21.134;2022-08-21T12:44:45;99009.25;;;23.71;48.27
32486;BME280;18935;52.236;21.134;2022-08-21T12:48:04;99010.94;;;23.88;48.28
32486;BME280;18935;52.236;21.134;2022-08-21T12:50:13;99012.44;;;23.99;48.91
32486;BME280;18935;52.236;21.134;2022-08-21T12:53:07;99009.13;;;23.97;47.59
32486;BME280;18935;52.236;21.134;2022-08-21T12:55:41;99007.47;;;23.45;49.96
32486;BME280;18935;52.236;21.134;2022-08-21T12:58:20;99008.75;;;22.91;52.25
32486;BME280;18935;52.236;21.134;2022-08-21T13:00:56;99009.06;;;22.88;51.60
32486;BME280;18935;52.236;21.134;2022-08-21T13:03:24;99013.91;;;22.92;52.27
32486;BME280;18935;52.236;21.134;2022-08-21T13:05:50;99010.66;;;23.07;50.79
32486;BME280;18935;52.236;21.134;2022-08-21T13:08:19;99007.09;;;23.24;51.60
32486;BME280;18935;52.236;21.134;2022-08-21T13:10:47;99008.34;;;23.12;51.73
32486;BME280;18935;52.236;21.134;2022-08-21T13:13:21;99010.84;;;23.13;51.89
32486;BME280;18935;52.236;21.134;2022-08-21T13:15:47;99009.47;;;23.01;52.81
32486;BME280;18935;52.236;21.134;2022-08-21T13:18:24;99008.91;;;22.63;52.41
32486;BME280;18935;52.236;21.134;2022-08-21T13:20:51;99011.13;;;22.76;52.56
32486;BME280;18935;52.236;21.134;2022-08-21T13:23:28;99002.94;;;22.69;52.08
32486;BME280;18935;52.236;21.134;2022-08-21T13:25:55;99011.28;;;22.48;52.13
32486;BME280;18935;52.236;21.134;2022-08-21T13:28:21;99015.22;;;22.44;51.92
32486;BME280;18935;52.236;21.134;2022-08-21T13:30:49;99002.00;;;22.53;52.50
32486;BME280;18935;52.236;21.134;2022-08-21T13:33:17;99008.69;;;22.57;53.34
32486;BME280;18935;52.236;21.134;2022-08-21T13:35:52;99010.84;;;22.61;53.95
32486;BME280;18935;52.236;21.134;2022-08-21T13:38:27;99011.16;;;22.84;53.17
32486;BME280;18935;52.236;21.134;2022-08-21T13:40:59;99012.78;;;22.95;51.12
32486;BME280;18935;52.236;21.134;2022-08-21T13:43:32;99014.50;;;22.60;52.29
32486;BME280;18935;52.236;21.134;2022-08-21T13:45:57;99014.72;;;22.67;52.00
32486;BME280;18935;52.236;21.134;2022-08-21T13:48:26;99009.63;;;22.47;52.00
32486;BME280;18935;52.236;21.134;2022-08-21T13:50:54;99012.00;;;22.33;52.65
32486;BME280;18935;52.236;21.134;2022-08-21T13:53:33;99010.72;;;22.19;52.75
32486;BME280;18935;52.236;21.134;2022-08-21T13:55:59;99003.81;;;22.26;52.56
32486;BME280;18935;52.236;21.134;2022-08-21T13:58:43;99003.88;;;22.34;51.84
32486;BME280;18935;52.236;21.134;2022-08-21T14:04:00;99004.66;;;22.09;53.07